Time;durP1;ratioP1;P1;durP2;ratioP2;P2;SDS_P1;SDS_P2;PMS_P1;PMS_P2;Temp;Humidity;BMP_temperature;BMP_pressure;BME280_temperature;BME280_humidity;BME280_pressure;Samples;Min_cycle;Max_cycle;Signal;HPM_P1;HPM_P2
2021/05/09 00:01:22;;;;;;;7.47;4.13;;;14.10;90.90;;;;;;5094291;28;20194;-79
2021/05/09 00:03:49;;;;;;;5.80;2.90;;;13.90;91.10;;;;;;5094297;28;20410;-79
2021/05/09 00:06:16;;;;;;;6.28;3.05;;;13.80;91.20;;;;;;5094227;28;20082;-78
2021/05/09 00:08:43;;;;;;;5.10;3.03;;;13.70;91.50;;;;;;5094858;28;20154;-78
2021/05/09 00:11:11;;;;;;;4.35;2.20;;;13.70;91.90;;;;;;5112268;28;20067;-78
2021/05/09 00:13:38;;;;;;;4.45;2.00;;;13.60;91.90;;;;;;5103182;28;20083;-77
2021/05/09 00:16:06;;;;;;;4.18;1.80;;;13.60;92.10;;;;;;5076150;28;20056;-77
2021/05/09 00:18:33;;;;;;;3.63;1.92;;;13.50;92.10;;;;;;5093968;28;20496;-77
2021/05/09 00:21:00;;;;;;;6.70;2.00;;;13.40;92.20;;;;;;5101795;28;20048;-77
2021/05/09 00:23:27;;;;;;;4.60;1.98;;;13.40;92.40;;;;;;5104039;28;20516;-78
2021/05/09 00:25:55;;;;;;;4.13;1.90;;;13.30;92.40;;;;;;5120628;28;20051;-77
2021/05/09 00:28:21;;;;;;;3.88;1.80;;;13.20;92.70;;;;;;5114037;28;20564;-78
2021/05/09 00:30:48;;;;;;;3.72;1.70;;;13.20;92.60;;;;;;5099070;28;20075;-79
2021/05/09 00:33:15;;;;;;;3.40;1.60;;;13.10;92.60;;;;;;5093572;28;20079;-77
2021/05/09 00:35:42;;;;;;;3.65;1.90;;;13.10;92.80;;;;;;5093781;28;20083;-77
2021/05/09 00:38:09;;;;;;;4.82;1.80;;;13.00;92.70;;;;;;5093554;28;20091;-78
2021/05/09 00:40:36;;;;;;;3.75;1.88;;;13.00;93.00;;;;;;5105059;28;20079;-78
2021/05/09 00:43:04;;;;;;;3.90;2.05;;;12.80;92.90;;;;;;5112917;28;20161;-78
2021/05/09 00:45:31;;;;;;;4.00;1.98;;;12.90;93.20;;;;;;5113693;28;20075;-79
2021/05/09 00:47:57;;;;;;;3.90;2.03;;;12.80;92.90;;;;;;5113733;28;20151;-78
2021/05/09 00:50:24;;;;;;;4.22;1.80;;;12.70;92.90;;;;;;5112645;28;20122;-78
2021/05/09 00:52:51;;;;;;;4.78;2.45;;;12.50;93.10;;;;;;5113823;28;20468;-79
2021/05/09 00:55:18;;;;;;;4.05;2.30;;;12.40;93.50;;;;;;5095734;28;20075;-80
2021/05/09 00:57:46;;;;;;;5.15;3.30;;;12.30;94.00;;;;;;5102872;28;20143;-78
2021/05/09 01:00:16;;;;;;;7.60;3.45;;;12.30;94.30;;;;;;5101203;28;20126;-78
2021/05/09 01:02:45;;;;;;;4.45;2.58;;;12.20;94.50;;;;;;5113657;28;20450;-78
2021/05/09 01:05:13;;;;;;;4.47;2.00;;;12.10;94.50;;;;;;5113528;28;20043;-78
2021/05/09 01:07:41;;;;;;;4.85;2.50;;;12.10;94.50;;;;;;5108201;28;20044;-78
2021/05/09 01:10:10;;;;;;;5.22;2.60;;;12.00;94.60;;;;;;5099784;28;20071;-78
2021/05/09 01:12:37;;;;;;;5.32;2.97;;;12.10;95.00;;;;;;5113530;28;20139;-77
2021/05/09 01:15:05;;;;;;;4.22;2.40;;;12.10;94.70;;;;;;5113394;28;20139;-78
2021/05/09 01:17:33;;;;;;;4.50;2.38;;;12.10;94.70;;;;;;5113589;28;20083;-78
2021/05/09 01:20:02;;;;;;;4.85;2.00;;;12.10;94.60;;;;;;5112029;28;20047;-79
2021/05/09 01:22:29;;;;;;;3.80;2.08;;;12.10;94.50;;;;;;5095341;28;20123;-78
2021/05/09 01:24:55;;;;;;;3.92;2.05;;;12.10;94.80;;;;;;5112547;28;20083;-78
2021/05/09 01:27:22;;;;;;;5.07;2.00;;;12.10;94.80;;;;;;5113587;28;20131;-78
2021/05/09 01:29:49;;;;;;;3.92;1.98;;;12.10;94.70;;;;;;5109579;28;20094;-79
2021/05/09 01:32:16;;;;;;;4.72;1.80;;;12.10;94.90;;;;;;5092943;28;20127;-77
2021/05/09 01:34:42;;;;;;;3.58;1.90;;;12.10;94.60;;;;;;5092755;28;20051;-78
2021/05/09 01:37:10;;;;;;;4.00;1.92;;;12.10;94.60;;;;;;5111429;28;20079;-79
2021/05/09 01:39:37;;;;;;;4.90;1.88;;;12.20;94.90;;;;;;5111585;28;20087;-79
2021/05/09 01:42:05;;;;;;;3.88;1.60;;;12.10;94.60;;;;;;5092825;28;20127;-79
2021/05/09 01:44:31;;;;;;;3.30;1.80;;;12.10;94.60;;;;;;5091519;28;20044;-79
2021/05/09 01:46:58;;;;;;;3.72;2.05;;;12.10;94.60;;;;;;5093043;28;20052;-79
2021/05/09 01:49:25;;;;;;;5.47;2.13;;;12.10;94.30;;;;;;5074958;28;20482;-79
2021/05/09 01:51:54;;;;;;;3.65;1.63;;;12.00;94.20;;;;;;5112936;28;20510;-79
2021/05/09 01:54:22;;;;;;;4.53;1.90;;;11.80;94.20;;;;;;5094562;28;20048;-80
2021/05/09 01:56:49;;;;;;;4.07;2.05;;;11.60;94.70;;;;;;5078766;28;20078;-79
2021/05/09 01:59:15;;;;;;;3.75;1.65;;;11.50;95.10;;;;;;5096706;28;20135;-78
2021/05/09 02:01:42;;;;;;;4.88;2.70;;;11.40;95.00;;;;;;5113220;28;20100;-79
2021/05/09 02:04:08;;;;;;;5.07;2.80;;;11.40;95.60;;;;;;5099096;28;20055;-78
2021/05/09 02:06:35;;;;;;;5.88;2.83;;;11.40;96.20;;;;;;5116868;28;20142;-79
2021/05/09 02:09:02;;;;;;;5.70;2.95;;;11.40;96.10;;;;;;5116982;28;20062;-79
2021/05/09 02:11:29;;;;;;;4.75;2.53;;;11.40;96.20;;;;;;5115198;28;20558;-79
2021/05/09 02:13:56;;;;;;;5.53;2.80;;;11.40;96.50;;;;;;5116768;28;20126;-79
2021/05/09 02:16:23;;;;;;;5.28;2.53;;;11.50;96.20;;;;;;5116674;28;20188;-78
2021/05/09 02:18:49;;;;;;;4.32;2.42;;;11.40;96.20;;;;;;5108574;28;20082;-79
2021/05/09 02:21:16;;;;;;;5.53;2.40;;;11.40;96.50;;;;;;5103764;28;20068;-78
2021/05/09 02:23:42;;;;;;;3.58;2.15;;;11.50;96.40;;;;;;5100410;28;20094;-78
2021/05/09 02:26:09;;;;;;;4.97;2.50;;;11.50;96.60;;;;;;5096230;28;20086;-77
2021/05/09 02:28:36;;;;;;;5.20;2.67;;;11.60;96.30;;;;;;5095919;28;20136;-78
2021/05/09 02:31:03;;;;;;;5.65;2.40;;;11.60;96.00;;;;;;5103422;28;20139;-78
2021/05/09 02:33:29;;;;;;;5.25;2.20;;;11.60;95.70;;;;;;5095988;28;20079;-78
2021/05/09 02:35:56;;;;;;;3.47;1.80;;;11.50;95.80;;;;;;5095850;28;20136;-78
2021/05/09 02:38:23;;;;;;;3.70;2.22;;;11.50;96.20;;;;;;5094488;28;20130;-78
2021/05/09 02:40:49;;;;;;;3.33;1.90;;;11.50;95.90;;;;;;5106090;28;20076;-78
2021/05/09 02:43:17;;;;;;;4.20;2.40;;;11.40;95.90;;;;;;5096124;28;20194;-78
2021/05/09 02:45:45;;;;;;;4.65;2.05;;;11.40;96.10;;;;;;5095694;28;20139;-78
2021/05/09 02:48:12;;;;;;;4.38;2.50;;;11.40;96.10;;;;;;5095874;28;20087;-77
2021/05/09 02:50:39;;;;;;;6.15;2.13;;;11.40;96.10;;;;;;5103874;28;20039;-77
2021/05/09 02:53:06;;;;;;;5.72;2.40;;;11.40;95.90;;;;;;5116109;28;20055;-78
2021/05/09 02:55:32;;;;;;;4.75;2.00;;;11.40;96.00;;;;;;5115981;28;20130;-78
2021/05/09 02:57:59;;;;;;;3.90;1.73;;;11.40;96.00;;;;;;5104012;28;20127;-78
2021/05/09 03:00:26;;;;;;;3.88;1.50;;;11.30;95.80;;;;;;5101629;28;20130;-78
2021/05/09 03:02:53;;;;;;;3.65;1.80;;;11.10;95.60;;;;;;5113780;28;20083;-78
2021/05/09 03:05:20;;;;;;;3.75;1.70;;;11.00;95.70;;;;;;5112666;28;20485;-80
2021/05/09 03:07:47;;;;;;;3.35;1.63;;;10.90;95.70;;;;;;5112122;28;20083;-76
2021/05/09 03:10:13;;;;;;;3.65;1.80;;;10.70;96.20;;;;;;5111772;28;20079;-77
2021/05/09 03:12:40;;;;;;;4.63;2.20;;;10.60;96.70;;;;;;5112553;28;20505;-78
2021/05/09 03:15:09;;;;;;;3.72;1.88;;;10.50;97.10;;;;;;5112023;28;20166;-77
2021/05/09 03:17:35;;;;;;;3.53;1.85;;;10.50;97.30;;;;;;5112608;28;20172;-77
2021/05/09 03:20:05;;;;;;;3.83;2.10;;;10.60;97.40;;;;;;5094279;28;20135;-77
2021/05/09 03:22:31;;;;;;;4.75;2.33;;;10.60;97.60;;;;;;5096685;28;20131;-78
2021/05/09 03:24:58;;;;;;;5.50;2.85;;;10.60;97.70;;;;;;5107920;28;20076;-78
2021/05/09 03:27:25;;;;;;;4.82;2.88;;;10.70;97.40;;;;;;5091841;28;20185;-79
2021/05/09 03:29:52;;;;;;;4.93;2.58;;;10.70;97.30;;;;;;5110456;28;20146;-76
2021/05/09 03:32:18;;;;;;;5.75;2.53;;;10.70;97.50;;;;;;5111205;28;20075;-78
2021/05/09 03:34:45;;;;;;;3.78;2.08;;;10.70;97.50;;;;;;5111978;28;20138;-79
2021/05/09 03:37:13;;;;;;;3.28;1.77;;;10.70;97.50;;;;;;5112174;28;20457;-78
2021/05/09 03:39:39;;;;;;;3.97;2.03;;;10.70;97.60;;;;;;5111713;28;20134;-79
2021/05/09 03:42:06;;;;;;;3.25;1.85;;;10.80;97.60;;;;;;5095311;28;20055;-77
2021/05/09 03:44:33;;;;;;;3.47;2.17;;;10.80;97.70;;;;;;5091306;28;20088;-78
2021/05/09 03:47:00;;;;;;;3.65;2.03;;;10.80;97.60;;;;;;5090867;28;20059;-78
2021/05/09 03:49:27;;;;;;;4.38;2.17;;;10.90;97.40;;;;;;5108217;28;20504;-78
2021/05/09 03:51:53;;;;;;;4.45;2.10;;;10.90;97.50;;;;;;5111639;28;20130;-78
2021/05/09 03:54:21;;;;;;;3.60;2.10;;;10.90;97.10;;;;;;5111514;28;20475;-78
2021/05/09 03:56:48;;;;;;;4.93;2.00;;;10.90;97.10;;;;;;5110725;28;20508;-77
2021/05/09 03:59:14;;;;;;;5.78;2.13;;;10.80;97.00;;;;;;5096611;28;20549;-78
2021/05/09 04:01:42;;;;;;;4.55;2.00;;;10.90;97.00;;;;;;5092582;28;20075;-78
2021/05/09 04:04:08;;;;;;;5.32;2.25;;;10.90;97.20;;;;;;5094305;28;20127;-77
2021/05/09 04:06:35;;;;;;;3.53;2.00;;;10.90;97.00;;;;;;5094178;28;20075;-78
2021/05/09 04:09:05;;;;;;;4.68;1.90;;;10.90;97.20;;;;;;5106393;28;20086;-77
2021/05/09 04:11:32;;;;;;;3.67;1.70;;;10.90;97.10;;;;;;5097060;28;20052;-77
2021/05/09 04:13:59;;;;;;;4.07;2.00;;;10.80;96.80;;;;;;5114345;28;20130;-78
2021/05/09 04:16:26;;;;;;;3.88;1.70;;;10.80;96.60;;;;;;5113338;28;20075;-78
2021/05/09 04:18:52;;;;;;;3.70;1.88;;;10.70;96.80;;;;;;5110720;28;20127;-77
2021/05/09 04:21:19;;;;;;;3.60;2.17;;;10.70;96.80;;;;;;5114068;28;20139;-76
2021/05/09 04:23:45;;;;;;;3.28;1.67;;;10.70;97.00;;;;;;5110079;28;20383;-78
2021/05/09 04:26:12;;;;;;;3.95;1.60;;;10.60;97.10;;;;;;5110180;28;20052;-76
2021/05/09 04:28:40;;;;;;;3.40;1.77;;;10.50;97.20;;;;;;5103149;28;20491;-78
2021/05/09 04:31:06;;;;;;;4.03;1.88;;;10.70;97.00;;;;;;5114561;28;20043;-77
2021/05/09 04:33:33;;;;;;;5.22;2.03;;;10.70;97.20;;;;;;5114213;28;20135;-78
2021/05/09 04:35:59;;;;;;;5.72;2.08;;;10.70;97.10;;;;;;5114148;28;20085;-78
2021/05/09 04:38:26;;;;;;;4.07;2.17;;;10.50;96.90;;;;;;5109826;28;20545;-78
2021/05/09 04:40:53;;;;;;;4.00;2.00;;;10.60;97.00;;;;;;5093850;28;20139;-77
2021/05/09 04:43:21;;;;;;;5.03;2.10;;;10.50;97.20;;;;;;5093514;28;20048;-77
2021/05/09 04:45:50;;;;;;;4.32;2.28;;;10.50;97.40;;;;;;5093517;28;20056;-78
2021/05/09 04:48:17;;;;;;;4.07;2.47;;;10.50;97.40;;;;;;5093649;28;20091;-78
2021/05/09 04:50:44;;;;;;;4.32;2.33;;;10.50;97.50;;;;;;5093609;28;20461;-77
2021/05/09 04:53:25;;;;;;;4.10;2.20;;;10.50;97.70;;;;;;5110614;28;20086;-79
2021/05/09 04:55:52;;;;;;;4.15;2.60;;;10.50;97.80;;;;;;5113719;28;20401;-77
2021/05/09 04:58:19;;;;;;;4.38;2.60;;;10.40;97.70;;;;;;5110370;28;20067;-77
2021/05/09 05:00:45;;;;;;;5.10;2.40;;;10.40;98.10;;;;;;5112388;28;20117;-77
2021/05/09 05:03:14;;;;;;;5.45;2.33;;;10.50;98.00;;;;;;5113519;28;20082;-77
2021/05/09 05:05:40;;;;;;;4.68;2.42;;;10.50;98.10;;;;;;5112653;28;20068;-78
2021/05/09 05:08:07;;;;;;;4.28;2.28;;;10.50;98.40;;;;;;5093206;28;20525;-77
2021/05/09 05:10:33;;;;;;;4.10;2.20;;;10.40;98.10;;;;;;5093294;28;20486;-78
2021/05/09 05:13:00;;;;;;;4.70;2.20;;;10.60;98.20;;;;;;5093323;28;20136;-76
2021/05/09 05:15:27;;;;;;;4.32;2.67;;;10.70;98.10;;;;;;5100798;28;20482;-78
2021/05/09 05:17:54;;;;;;;5.57;2.67;;;10.70;98.00;;;;;;5113791;28;20075;-77
2021/05/09 05:20:21;;;;;;;4.60;2.20;;;10.80;97.90;;;;;;5102445;28;20075;-78
2021/05/09 05:22:48;;;;;;;5.32;2.53;;;10.80;97.90;;;;;;5111234;28;20094;-78
2021/05/09 05:25:15;;;;;;;4.05;2.10;;;10.80;97.80;;;;;;5112808;28;20050;-77
2021/05/09 05:27:42;;;;;;;3.90;2.00;;;10.80;97.90;;;;;;5095324;28;20079;-76
2021/05/09 05:30:10;;;;;;;3.90;2.00;;;10.80;98.00;;;;;;5116523;28;20043;-78
2021/05/09 05:32:40;;;;;;;4.68;2.45;;;10.80;98.10;;;;;;5118030;28;20130;-78
2021/05/09 05:35:07;;;;;;;4.13;2.00;;;10.90;98.20;;;;;;5111994;28;20052;-79
2021/05/09 05:37:35;;;;;;;4.25;2.40;;;11.00;98.20;;;;;;5117803;28;20143;-78
2021/05/09 05:40:02;;;;;;;4.50;2.50;;;11.10;98.20;;;;;;5116472;28;20082;-78
2021/05/09 05:42:28;;;;;;;4.38;2.05;;;11.20;98.10;;;;;;5117945;28;20136;-77
2021/05/09 05:44:55;;;;;;;4.18;2.22;;;11.30;97.90;;;;;;5110000;28;20126;-76
2021/05/09 05:47:22;;;;;;;4.40;2.30;;;11.40;98.00;;;;;;5109447;28;20093;-78
2021/05/09 05:49:48;;;;;;;4.70;2.55;;;11.50;97.70;;;;;;5117475;28;20096;-77
2021/05/09 05:52:15;;;;;;;5.10;2.58;;;11.60;97.60;;;;;;5117220;28;20509;-78
2021/05/09 05:54:42;;;;;;;3.95;2.30;;;11.60;97.40;;;;;;5116031;28;20083;-78
2021/05/09 05:57:09;;;;;;;4.90;2.92;;;11.70;97.60;;;;;;5117136;28;20075;-79
2021/05/09 05:59:36;;;;;;;5.18;2.50;;;11.80;97.30;;;;;;5107624;28;20087;-80
2021/05/09 06:02:02;;;;;;;5.22;2.70;;;11.80;97.10;;;;;;5101063;28;20143;-80
2021/05/09 06:04:29;;;;;;;4.53;2.50;;;11.90;97.10;;;;;;5107188;28;20076;-79
2021/05/09 06:06:56;;;;;;;4.60;2.30;;;11.90;97.20;;;;;;5097688;28;20498;-80
2021/05/09 06:09:23;;;;;;;4.40;2.47;;;11.90;97.30;;;;;;5110604;28;20042;-79
2021/05/09 06:11:50;;;;;;;4.95;2.50;;;12.00;97.40;;;;;;5096842;28;20072;-78
2021/05/09 06:14:17;;;;;;;4.38;2.40;;;12.00;97.40;;;;;;5112691;28;20131;-78
2021/05/09 06:16:44;;;;;;;3.90;2.40;;;12.10;97.40;;;;;;5107580;28;20048;-78
2021/05/09 06:19:10;;;;;;;5.10;2.47;;;12.10;97.30;;;;;;5098074;28;20079;-79
2021/05/09 06:21:37;;;;;;;5.25;2.50;;;12.20;97.30;;;;;;5095025;28;20147;-77
2021/05/09 06:24:05;;;;;;;4.28;2.45;;;12.30;97.30;;;;;;5120593;27;20173;-79
2021/05/09 06:26:32;;;;;;;4.45;2.50;;;12.40;97.20;;;;;;5102795;27;20086;-79
2021/05/09 06:28:59;;;;;;;5.13;2.28;;;12.40;97.10;;;;;;5113056;28;20079;-78
2021/05/09 06:31:26;;;;;;;4.60;2.10;;;12.50;97.10;;;;;;5114898;28;20181;-78
2021/05/09 06:33:55;;;;;;;4.43;1.90;;;12.60;97.30;;;;;;5107078;28;20131;-78
2021/05/09 06:36:22;;;;;;;4.88;2.10;;;12.70;96.90;;;;;;5096441;28;20048;-77
2021/05/09 06:38:49;;;;;;;4.50;1.90;;;12.80;96.80;;;;;;5113227;28;20119;-79
2021/05/09 06:41:17;;;;;;;4.05;2.00;;;12.90;96.80;;;;;;5078064;28;20138;-78
2021/05/09 06:43:44;;;;;;;3.60;1.80;;;13.00;96.80;;;;;;5087274;28;20501;-78
2021/05/09 06:46:12;;;;;;;4.40;1.80;;;13.10;96.80;;;;;;5109345;28;20447;-78
2021/05/09 06:48:38;;;;;;;3.88;1.77;;;13.20;96.70;;;;;;5103584;28;20087;-78
2021/05/09 06:51:06;;;;;;;3.80;1.90;;;13.30;96.70;;;;;;5105569;28;20149;-78
2021/05/09 06:53:33;;;;;;;4.15;2.08;;;13.40;96.50;;;;;;5110870;28;20078;-78
2021/05/09 06:55:59;;;;;;;3.42;1.90;;;13.50;96.50;;;;;;5099782;28;20486;-78
2021/05/09 06:58:26;;;;;;;2.95;1.70;;;13.60;96.40;;;;;;5116111;28;20078;-78
2021/05/09 07:00:53;;;;;;;3.85;1.95;;;13.80;96.40;;;;;;5116649;28;20079;-77
2021/05/09 07:03:21;;;;;;;3.55;1.70;;;13.90;96.20;;;;;;5101016;28;20130;-80
2021/05/09 07:05:48;;;;;;;3.83;1.70;;;14.00;96.10;;;;;;5104078;28;20044;-80
2021/05/09 07:08:14;;;;;;;3.25;1.70;;;14.10;96.10;;;;;;5108835;28;20094;-79
2021/05/09 07:10:41;;;;;;;3.22;1.58;;;14.20;96.00;;;;;;5115617;28;20552;-79
2021/05/09 07:13:07;;;;;;;4.40;1.83;;;14.30;96.00;;;;;;5114213;28;20075;-78
2021/05/09 07:15:36;;;;;;;3.28;1.80;;;14.40;95.80;;;;;;5107040;28;20048;-78
2021/05/09 07:18:07;;;;;;;2.80;1.30;;;14.50;95.80;;;;;;5097964;28;20458;-80
2021/05/09 07:20:37;;;;;;;3.67;1.58;;;14.70;95.80;;;;;;5095447;28;20077;-80
2021/05/09 07:23:05;;;;;;;3.50;1.65;;;14.80;95.70;;;;;;5100071;28;20048;-79
2021/05/09 07:25:32;;;;;;;2.88;1.50;;;14.90;95.60;;;;;;5095125;28;20059;-79
2021/05/09 07:28:05;;;;;;;3.25;1.45;;;14.90;95.40;;;;;;5095482;28;20127;-79
2021/05/09 07:30:33;;;;;;;3.63;1.42;;;15.00;95.40;;;;;;5104828;28;20048;-79
2021/05/09 07:32:59;;;;;;;3.33;1.40;;;15.20;95.30;;;;;;5087044;28;20075;-81
2021/05/09 07:35:26;;;;;;;3.08;1.40;;;15.30;95.20;;;;;;5095984;28;20071;-79
2021/05/09 07:37:54;;;;;;;2.55;1.25;;;15.40;95.40;;;;;;5100768;27;20072;-80
2021/05/09 07:40:21;;;;;;;2.97;1.20;;;15.50;95.00;;;;;;5100927;28;20043;-79
2021/05/09 07:42:48;;;;;;;2.63;1.20;;;15.60;94.80;;;;;;5102577;28;20134;-79
2021/05/09 07:45:17;;;;;;;2.67;1.20;;;15.70;94.70;;;;;;5094241;28;20565;-78
2021/05/09 07:47:45;;;;;;;2.85;1.15;;;15.80;94.70;;;;;;5094255;28;20055;-79
2021/05/09 07:50:14;;;;;;;2.60;1.15;;;15.90;94.80;;;;;;5094491;28;20047;-79
2021/05/09 07:52:43;;;;;;;2.50;1.27;;;16.00;94.60;;;;;;5093852;28;20094;-79
2021/05/09 07:55:12;;;;;;;4.43;2.33;;;16.10;94.30;;;;;;5097238;28;20131;-79
2021/05/09 07:57:38;;;;;;;3.80;1.98;;;16.20;94.20;;;;;;5114812;28;20087;-79
2021/05/09 08:00:09;;;;;;;2.92;1.50;;;16.30;94.30;;;;;;5110174;28;20138;-80
2021/05/09 08:02:36;;;;;;;3.22;1.50;;;16.40;94.10;;;;;;5093639;28;20073;-79
2021/05/09 08:05:04;;;;;;;2.40;1.35;;;16.50;93.90;;;;;;5094035;28;20079;-79
2021/05/09 08:07:31;;;;;;;2.63;1.17;;;16.50;93.70;;;;;;5097968;28;20074;-80
2021/05/09 08:09:57;;;;;;;3.47;1.40;;;16.60;93.50;;;;;;5111319;28;20135;-79
2021/05/09 08:12:25;;;;;;;2.42;1.20;;;16.70;93.30;;;;;;5093986;28;20067;-79
2021/05/09 08:14:52;;;;;;;2.80;1.27;;;16.80;93.20;;;;;;5093759;28;20127;-78
2021/05/09 08:17:19;;;;;;;2.13;1.00;;;16.90;93.00;;;;;;5094167;28;20068;-79
2021/05/09 08:19:45;;;;;;;2.85;1.05;;;17.00;92.90;;;;;;5111771;28;20143;-78
2021/05/09 08:22:12;;;;;;;3.00;1.00;;;17.10;92.70;;;;;;5102527;28;20133;-78
2021/05/09 08:24:39;;;;;;;3.25;1.20;;;17.20;92.70;;;;;;5099603;28;20087;-79
2021/05/09 08:27:06;;;;;;;3.08;1.00;;;17.40;92.70;;;;;;5114036;28;20086;-79
2021/05/09 08:29:34;;;;;;;3.15;1.00;;;17.50;92.40;;;;;;5111392;28;20086;-79
2021/05/09 08:32:00;;;;;;;1.90;1.00;;;17.60;92.10;;;;;;5108241;28;20473;-79
2021/05/09 08:34:28;;;;;;;2.13;0.90;;;17.70;91.90;;;;;;5100702;28;20048;-78
2021/05/09 08:36:54;;;;;;;2.75;1.13;;;17.90;91.80;;;;;;5114277;28;20048;-78
2021/05/09 08:39:21;;;;;;;1.90;0.90;;;18.00;91.50;;;;;;5108332;28;20120;-78
2021/05/09 08:41:48;;;;;;;3.05;1.30;;;18.20;91.30;;;;;;5096740;28;20094;-78
2021/05/09 08:44:15;;;;;;;2.30;0.80;;;18.30;91.20;;;;;;5113953;28;20048;-78
2021/05/09 08:46:46;;;;;;;2.25;0.82;;;18.40;90.80;;;;;;5113744;28;20145;-79
2021/05/09 08:49:15;;;;;;;2.22;1.00;;;18.50;90.50;;;;;;5112261;28;20054;-79
2021/05/09 08:51:42;;;;;;;3.08;1.00;;;18.70;90.50;;;;;;5113729;28;20126;-79
2021/05/09 08:54:08;;;;;;;2.00;0.90;;;18.90;90.00;;;;;;5107564;28;20198;-78
2021/05/09 08:56:35;;;;;;;2.00;0.90;;;19.00;89.30;;;;;;5101943;27;20131;-81
2021/05/09 08:59:02;;;;;;;3.28;1.10;;;19.20;89.10;;;;;;5096541;28;20094;-79
2021/05/09 09:01:31;;;;;;;2.15;1.00;;;19.30;89.00;;;;;;5106731;28;20082;-81
2021/05/09 09:03:58;;;;;;;2.00;0.80;;;19.50;88.90;;;;;;5108575;28;20051;-80
2021/05/09 09:06:43;;;;;;;2.38;0.82;;;19.70;88.60;;;;;;5103784;28;20508;-80
2021/05/09 09:09:20;;;;;;;1.98;0.93;;;19.80;88.10;;;;;;5098475;28;20044;-81
2021/05/09 09:11:52;;;;;;;1.73;0.85;;;19.90;87.60;;;;;;5099198;28;20040;-80
2021/05/09 09:14:18;;;;;;;2.35;1.00;;;19.90;87.00;;;;;;5096872;28;20517;-77
2021/05/09 09:16:45;;;;;;;3.33;1.10;;;20.10;86.60;;;;;;5093799;28;20086;-80
2021/05/09 09:19:14;;;;;;;2.20;1.05;;;20.20;86.50;;;;;;5092948;28;20075;-79
2021/05/09 09:21:42;;;;;;;2.70;1.33;;;20.40;86.00;;;;;;5100385;28;20468;-80
2021/05/09 09:24:11;;;;;;;2.10;1.10;;;20.60;85.20;;;;;;5113828;28;20085;-79
2021/05/09 09:26:40;;;;;;;2.58;1.10;;;20.70;84.20;;;;;;5117136;27;20040;-79
2021/05/09 09:29:23;;;;;;;3.55;1.20;;;20.90;82.80;;;;;;5093057;28;20139;-79
2021/05/09 09:31:55;;;;;;;2.33;0.85;;;20.90;81.60;;;;;;5075308;28;20086;-78
2021/05/09 09:34:23;;;;;;;1.83;0.90;;;21.00;80.10;;;;;;5092910;28;20044;-78
2021/05/09 09:37:01;;;;;;;2.95;1.13;;;21.20;78.40;;;;;;5094012;28;20040;-79
2021/05/09 09:39:45;;;;;;;2.15;0.85;;;21.40;77.50;;;;;;5111282;28;20050;-81
2021/05/09 09:42:12;;;;;;;;;;;21.60;78.80;;;;;;5058820;28;20127;-79
2021/05/09 09:44:39;;;;;;;2.30;0.95;;;21.70;76.30;;;;;;5093017;28;19920;-78
2021/05/09 09:47:06;;;;;;;2.90;0.80;;;21.90;75.30;;;;;;5093728;28;20079;-79
2021/05/09 09:49:37;;;;;;;2.30;1.00;;;22.00;73.70;;;;;;5110299;28;20443;-78
2021/05/09 09:52:06;;;;;;;2.00;0.70;;;22.10;71.00;;;;;;5099332;28;20067;-80
2021/05/09 09:54:44;;;;;;;2.70;0.95;;;22.30;67.60;;;;;;5112945;28;20091;-80
2021/05/09 09:57:29;;;;;;;2.22;0.98;;;22.40;66.30;;;;;;5093608;28;20044;-78
2021/05/09 10:00:08;;;;;;;1.65;0.82;;;22.60;63.80;;;;;;5075152;28;20054;-78
2021/05/09 10:02:37;;;;;;;2.92;0.80;;;22.80;59.60;;;;;;5081641;28;20416;-80
2021/05/09 10:05:08;;;;;;;1.42;0.70;;;23.00;55.20;;;;;;5094217;28;20056;-79
2021/05/09 10:07:35;;;;;;;2.00;0.80;;;23.20;50.80;;;;;;5093611;28;20115;-80
2021/05/09 10:10:02;;;;;;;1.25;0.50;;;23.40;47.30;;;;;;5100610;28;20504;-79
2021/05/09 10:12:29;;;;;;;1.80;0.70;;;23.50;45.40;;;;;;5112762;28;20059;-78
2021/05/09 10:14:56;;;;;;;1.27;0.60;;;23.50;45.10;;;;;;5089201;28;20044;-81
2021/05/09 10:17:24;;;;;;;1.73;0.70;;;23.70;45.30;;;;;;5095412;28;20048;-79
2021/05/09 10:19:51;;;;;;;1.30;0.60;;;23.80;45.00;;;;;;5099427;28;20433;-77
2021/05/09 10:22:30;;;;;;;1.27;0.60;;;23.90;44.60;;;;;;5099275;28;20082;-77
2021/05/09 10:24:57;;;;;;;1.27;0.50;;;24.10;44.30;;;;;;5098317;28;20079;-78
2021/05/09 10:27:36;;;;;;;1.33;0.60;;;24.10;43.70;;;;;;5110605;28;20076;-79
2021/05/09 10:30:05;;;;;;;1.95;0.60;;;24.20;43.80;;;;;;5098429;28;20052;-78
2021/05/09 10:32:52;;;;;;;1.50;0.68;;;24.20;43.20;;;;;;5096610;28;20187;-78
2021/05/09 10:35:42;;;;;;;4.50;0.85;;;24.40;43.00;;;;;;5105803;28;20103;-80
2021/05/09 10:38:11;;;;;;;1.92;0.70;;;24.40;43.10;;;;;;5114864;28;20059;-78
2021/05/09 10:40:43;;;;;;;2.50;0.60;;;24.50;42.70;;;;;;5115135;28;20043;-79
2021/05/09 10:43:38;;;;;;;1.58;0.57;;;24.60;42.20;;;;;;5110197;28;20078;-79
2021/05/09 10:46:06;;;;;;;2.03;0.70;;;24.70;42.20;;;;;;5103266;28;20071;-79
2021/05/09 10:48:34;;;;;;;2.03;0.88;;;24.80;41.70;;;;;;5104359;28;20052;-79
2021/05/09 10:51:28;;;;;;;2.10;0.73;;;24.80;41.10;;;;;;5095680;28;20139;-80
2021/05/09 10:53:58;;;;;;;1.85;0.70;;;24.90;41.50;;;;;;5099099;28;20044;-79
2021/05/09 10:56:34;;;;;;;1.55;0.60;;;24.90;41.30;;;;;;5114945;28;20556;-80
2021/05/09 10:59:02;;;;;;;1.50;0.63;;;25.00;40.30;;;;;;5115176;28;20079;-80
2021/05/09 11:01:32;;;;;;;2.28;0.80;;;25.00;40.50;;;;;;5115782;28;20525;-77
2021/05/09 11:04:00;;;;;;;1.98;0.82;;;25.10;40.60;;;;;;5096761;28;20090;-80
2021/05/09 11:06:51;;;;;;;1.00;0.50;;;25.30;40.60;;;;;;5105378;28;20083;-79
2021/05/09 11:09:36;;;;;;;1.90;0.70;;;25.40;40.40;;;;;;5114706;28;20558;-79
2021/05/09 11:12:05;;;;;;;2.10;0.65;;;25.40;40.20;;;;;;5112484;28;20048;-79
2021/05/09 11:14:37;;;;;;;1.63;0.52;;;25.50;40.00;;;;;;5095829;28;20537;-82
2021/05/09 11:17:16;;;;;;;1.55;0.90;;;25.50;40.00;;;;;;5095298;28;20127;-81
2021/05/09 11:19:51;;;;;;;1.77;0.70;;;25.60;39.60;;;;;;5111013;28;20088;-79
2021/05/09 11:22:24;;;;;;;2.08;0.80;;;25.60;39.20;;;;;;5115137;28;20109;-77
2021/05/09 11:25:00;;;;;;;2.17;0.70;;;25.60;39.30;;;;;;5114319;28;20052;-79
2021/05/09 11:27:28;;;;;;;1.88;0.55;;;25.70;39.50;;;;;;5113079;28;20079;-78
2021/05/09 11:29:55;;;;;;;1.60;0.70;;;25.60;39.90;;;;;;5114839;28;20412;-80
2021/05/09 11:32:23;;;;;;;1.90;0.60;;;25.70;39.90;;;;;;5114785;28;20085;-76
2021/05/09 11:34:57;;;;;;;2.58;0.70;;;25.80;39.90;;;;;;5096294;28;20507;-78
2021/05/09 11:37:33;;;;;;;2.03;0.70;;;25.90;39.50;;;;;;5109260;28;20079;-79
2021/05/09 11:40:04;;;;;;;2.17;0.75;;;25.90;39.10;;;;;;5095693;28;20044;-77
2021/05/09 11:42:31;;;;;;;1.75;0.60;;;25.90;39.00;;;;;;5112459;28;20040;-77
2021/05/09 11:44:58;;;;;;;0.70;0.50;;;26.00;39.00;;;;;;5114603;28;20481;-78
2021/05/09 11:47:27;;;;;;;1.90;0.55;;;26.00;39.40;;;;;;5113158;28;20462;-77
2021/05/09 11:49:58;;;;;;;1.50;0.63;;;26.10;39.70;;;;;;5102863;28;20401;-78
2021/05/09 11:52:27;;;;;;;1.77;0.63;;;26.20;39.60;;;;;;5114993;28;20052;-80
2021/05/09 11:54:57;;;;;;;1.70;0.73;;;26.20;39.20;;;;;;5114328;28;20048;-78
2021/05/09 11:57:26;;;;;;;1.70;0.60;;;26.20;39.30;;;;;;5112537;28;20574;-80
2021/05/09 11:59:57;;;;;;;1.70;0.68;;;26.30;39.30;;;;;;5105760;28;20071;-78
2021/05/09 12:02:32;;;;;;;1.70;0.70;;;26.30;38.80;;;;;;5098570;28;20092;-80
2021/05/09 12:05:09;;;;;;;1.40;0.63;;;26.40;39.00;;;;;;5104707;28;20055;-79
2021/05/09 12:07:43;;;;;;;1.92;0.60;;;26.40;39.10;;;;;;5113426;28;20054;-78
2021/05/09 12:10:14;;;;;;;1.95;0.70;;;26.50;39.10;;;;;;5113528;28;20181;-77
2021/05/09 12:12:43;;;;;;;2.38;0.90;;;26.60;38.40;;;;;;5114118;28;20082;-78
2021/05/09 12:15:13;;;;;;;1.83;0.77;;;26.70;38.20;;;;;;5113934;28;20138;-78
2021/05/09 12:17:52;;;;;;;1.83;0.70;;;26.80;37.90;;;;;;5110090;28;20090;-78
2021/05/09 12:20:29;;;;;;;1.52;0.60;;;27.00;36.80;;;;;;5093397;28;20087;-78
2021/05/09 12:22:57;;;;;;;1.13;0.50;;;27.10;37.40;;;;;;5111406;28;20454;-78
2021/05/09 12:25:29;;;;;;;3.13;1.10;;;27.20;38.80;;;;;;5114393;28;20043;-77
2021/05/09 12:28:04;;;;;;;1.50;0.75;;;27.30;37.30;;;;;;5112133;28;20562;-77
2021/05/09 12:30:31;;;;;;;1.98;0.73;;;27.50;37.80;;;;;;5114173;28;20054;-79
2021/05/09 12:32:58;;;;;;;2.47;0.80;;;27.60;37.90;;;;;;5112892;28;20051;-80
2021/05/09 12:35:24;;;;;;;2.05;0.60;;;27.60;37.80;;;;;;5113317;28;20480;-79
2021/05/09 12:38:02;;;;;;;3.65;0.75;;;27.80;37.50;;;;;;5112063;28;20051;-78
2021/05/09 12:40:36;;;;;;;2.13;0.70;;;27.90;37.00;;;;;;5114257;28;20138;-78
2021/05/09 12:43:06;;;;;;;1.58;0.60;;;28.00;37.30;;;;;;5114098;28;20067;-80
2021/05/09 12:45:42;;;;;;;1.75;0.80;;;28.00;36.70;;;;;;5110303;28;20043;-79
2021/05/09 12:48:18;;;;;;;1.80;0.70;;;27.90;36.30;;;;;;5101110;28;20138;-79
2021/05/09 12:51:01;;;;;;;1.67;0.65;;;27.80;35.60;;;;;;5100149;28;20051;-78
2021/05/09 12:53:43;;;;;;;2.47;0.80;;;27.70;36.50;;;;;;5054871;28;20048;-80
2021/05/09 12:56:25;;;;;;;1.40;0.60;;;27.70;36.60;;;;;;5089271;28;20052;-80